Relevés horaires St-Hubert (Belgique)


Relevés horaires à St-Hubert - Dimanche 15 Juill. 2018
Heure UTC1 Température [°C] Vent [km/h] Hum. [%] Pres.4 [hPa] Visi. [Km] Nébu. [octa] Préc.5 [mm] Cond.
2m. Res. Ros. Dir.2 Vit. Moy. Raf.3
23:00 17.0 17.0 12.3 NNO 0.0 0.0 0.0 74 1015.3(0.3/3h) 45 0/8 -- --
22:00 17.7 17.7 12.8 NNO 0.0 0.0 0.0 73 1015.2(0.7/3h) 45 0/8 -- --
21:00 18.6 18.6 12.4 NNO 0.0 0.0 0.0 67 1015.1(1.0/3h) 45 0/8 -- --
20:00 20.8 20.8 11.0 NNO 0.0 0.0 0.0 53 1014.2(0.4/3h) 40 0/8 -- --
19:00 20.9 20.9 11.9 NNO 0.0 0.0 0.0 56 1013.8(-0.1/3h) 45 0/8 -- --
18:00 22.7 22.7 13.1 NNO 0.0 0.0 0.0 55 1013.1(-0.4/3h) 30 0/8 0/12h
--
17:00 22.5 22.5 13.0 NNO 0.0 0.0 0.0 55 1013.4(-0.7/3h) 27 0/8 -- --
16:00 22.4 22.4 10.4 NNO 0.0 0.0 0.0 47 1013.6(-1.0/3h) 40 0/8 -- --
15:00 23.6 23.6 10.5 NNO 0.0 0.0 0.0 44 1013.4(-1.4/3h) 35 0/8 -- --
14:00 23.7 23.7 10.6 NNO 0.0 0.0 0.0 44 1013.9(-1.2/3h) 40 0/8 -- --
13:00 21.8 21.8 11.7 NNO 0.0 0.0 0.0 53 1014.8(-1.2/3h) 30 0/8 -- --
12:00 22.8 22.8 10.0 NNO 0.0 0.0 0.0 44 1015.1(-0.9/3h) 30 0/8 0/6h
--
11:00 22.7 22.7 10.0 NNO 0.0 0.0 0.0 45 1015.5(-0.5/3h) 30 0/8 -- --
10:00 22.5 22.5 9.7 NNO 0.0 0.0 0.0 44 1016(0.1/3h) 30 0/8 -- --
09:00 21.5 21.5 8.8 NNO 0.0 0.0 0.0 44 1016.3(0.2/3h) 30 0/8 -- --
08:00 20.3 20.3 12.9 NNO 0.0 0.0 0.0 62 1016.5(0.3/3h) 30 0/8 -- --
07:00 18.6 18.6 12.2 NNO 0.0 0.0 0.0 66 1016.9(-0.1/3h) 30 0/8 -- --
06:00 16.0 16.0 10.3 NNO 0.0 0.0 0.0 69 1017.3(-0.2/3h) 30 0/8 0/12h
--
05:00 14.8 14.8 9.6 NNO 0.0 0.0 0.0 71 1017.4(-0.7/3h) 35 0/8 -- --
04:00 14.5 14.5 9.4 NNO 0.0 0.0 0.0 71 1017.7(-0.7/3h) 45 0/8 -- --
03:00 14.3 14.3 9.4 NNO 0.0 0.0 0.0 72 1018(-0.7/3h) 45 0/8 -- --
02:00 14.8 14.8 9.6 NNO 0.0 0.0 0.0 71 1018.1(-0.6/3h) 45 0/8 -- --
01:00 14.8 14.8 9.9 NNO 0.0 0.0 0.0 72 1018.3(-0.4/3h) 45 0/8 -- --
00:00 16.1 16.1 10.3 NNO 0.0 0.0 0.0 68 1018.3(0.2/3h) 40 0/8 0/6h
0/24h
--

1 Coordinated Universal Time. Actuellement il est 13:00 locale et 11:00 UTC.

2 Le vent souffle depuis la direction indiquée vers la direction oposée.

3 Les rafales max. sont disponible 40 min après l'heure du relevé.

4 Pour les stations d'altitude (plus de 600m) le géopotentiel du niveau le plus proche de la pression obligatoire est indiqué.

5 Les stations disposant d'un diffuseur peuvent indiquer "trace". Cela signifie que des précipitations ont touchés le sol mais que la quantité est inférieure à 0.1 mm.

Récapitulatif de la journée
Température [°C] Vent [km/h] Ensoleillement4 [h] Precipitations totale5 [mm] Pression [Hpa]
Min1 Max.2 Moy.3 Max. Min Max.
13.6 24.5 0 0.0 0 h 0 min 0 1013.1 1018.3

1 Température minimale relevée entre 18:00 UTC la veille et 18:00 UTC le jour donné.

2 Température maximale relevée entre 06:00 UTC le jour donné et 06:00 UTC le lendemain.

3 Vent moyen de la journée basé sur les relevés horaires.

4 Ensoleillement en heures relevé entre 06:00 UTC la veille et 06:00 UTC le jour donné.

5 Précipitations totales tombées entre 06:00 UTC la jour donné et 06:00 UTC le lendemain.

Graphiques horaires